Main page
METAR-TAF:

METAR-TAF

Airports :

Malé, Maldives

Velana International Airport

latitude: 04-12N, longitude: 073-32E, elevation: 2 m

Current weather observation

The report was made 23 hours and 11 minutes ago, at 14:00 UTC
Wind 11 kt from the East/Northeast
Temperature 28°C
Humidity 70%
Pressure 1009 hPa
Visibility 10 km or more
Scattered clouds at a height of 1800 ft

METAR: VRMM 201400Z 06011KT 9999 SCT018 28/22 Q1009 NOSIG

Time: 18:11 (13:11 UTC)

Forecast

The report was made 26 hours and 11 minutes ago, at 11:00 UTC
Forecast valid from 20 at 12 UTC to 21 at 18 UTC
Wind 12 kt from the East/Northeast
Visibility: 9000 m
Few clouds at a height of 1900 ft

TAF: VRMM 201100Z 2012/2118 06012KT 9000 FEW019

Weather observations and forecasts of more than 4000 airports (METAR and TAF reports).

The available stations are represented by yellow and red dots on the map.

Hover mouse over dot to see the name of the station.

Then click to see weather observations and forecasts.

To change the map : click on the green buttons with a black cross to zoom in, on the green button with a dash to zoom out, or on the green arrows for adjacent maps.


METAR-TAF: